createdAt,value
2022-09-05T00:04:23.820Z,7.22
2022-09-05T00:09:45.224Z,6.85
2022-09-05T00:15:23.467Z,6.60
2022-09-05T00:24:22.001Z,5.85
2022-09-05T00:26:14.182Z,5.05
2022-09-05T00:31:53.442Z,6.68
2022-09-05T00:36:55.602Z,6.72
2022-09-05T00:42:04.407Z,6.45
2022-09-05T00:47:17.643Z,6.97
2022-09-05T00:52:37.376Z,7.28
2022-09-05T00:58:27.678Z,7.20
2022-09-05T01:04:05.663Z,6.65
2022-09-05T01:09:21.921Z,6.78
2022-09-05T01:14:52.355Z,6.20
2022-09-05T01:20:18.576Z,6.07
2022-09-05T01:25:35.623Z,6.30
2022-09-05T01:30:55.770Z,6.10
2022-09-05T01:36:19.416Z,6.93
2022-09-05T01:41:53.987Z,5.18
2022-09-05T01:47:29.499Z,6.07
2022-09-05T01:53:02.190Z,4.78
2022-09-05T01:58:53.199Z,4.03
2022-09-05T02:04:19.664Z,4.22
2022-09-05T02:09:40.234Z,3.90
2022-09-05T02:14:54.592Z,3.30
2022-09-05T02:20:34.061Z,4.32
2022-09-05T02:26:02.538Z,3.77
2022-09-05T02:31:19.502Z,3.97
2022-09-05T02:36:30.890Z,3.58
2022-09-05T02:45:14.816Z,4.00
2022-09-05T02:47:25.642Z,3.63
2022-09-05T02:57:35.749Z,4.00
2022-09-05T02:58:14.869Z,3.60
2022-09-05T03:03:35.681Z,3.33
2022-09-05T03:08:54.410Z,3.47
2022-09-05T03:14:31.315Z,3.83
2022-09-05T03:19:54.844Z,3.80
2022-09-05T03:25:22.431Z,3.92
2022-09-05T03:30:28.824Z,3.90
2022-09-05T03:36:09.386Z,4.30
2022-09-05T03:41:40.592Z,3.45
2022-09-05T03:46:45.731Z,4.10
2022-09-05T03:57:05.529Z,4.28
2022-09-05T03:57:38.599Z,3.90
2022-09-05T04:08:09.141Z,4.20
2022-09-05T04:09:02.922Z,4.63
2022-09-05T04:14:14.903Z,4.00
2022-09-05T04:19:34.872Z,4.20
2022-09-05T04:25:08.844Z,4.05
2022-09-05T04:30:38.581Z,4.60
2022-09-05T04:36:17.767Z,4.43
2022-09-05T04:41:37.750Z,4.43
2022-09-05T04:46:57.500Z,5.25
2022-09-05T04:52:43.942Z,5.38
2022-09-05T04:57:56.559Z,4.88
2022-09-05T05:06:18.351Z,6.00
2022-09-05T05:08:45.770Z,5.45
2022-09-05T05:17:56.909Z,6.13
2022-09-05T05:19:24.154Z,5.78
2022-09-05T05:24:30.955Z,6.43
2022-09-05T05:29:53.652Z,7.00
2022-09-05T05:35:00.392Z,6.25
2022-09-05T05:40:30.341Z,6.43
2022-09-05T05:45:34.008Z,6.25
2022-09-05T05:50:42.813Z,6.85
2022-09-05T05:56:06.255Z,7.60
2022-09-05T06:01:45.803Z,7.00
2022-09-05T06:06:53.437Z,7.05
2022-09-05T06:15:06.633Z,6.97
2022-09-05T06:17:58.464Z,7.72
2022-09-05T06:23:30.824Z,7.25
2022-09-05T06:28:54.915Z,7.50
2022-09-05T06:34:33.528Z,7.43
2022-09-05T06:39:53.050Z,7.20
2022-09-05T06:45:27.352Z,7.85
2022-09-05T06:51:07.014Z,7.55
2022-09-05T06:56:25.914Z,7.75
2022-09-05T07:01:50.044Z,7.88
2022-09-05T07:07:17.021Z,7.65
2022-09-05T07:12:30.096Z,7.55
2022-09-05T07:18:09.617Z,8.13
2022-09-05T07:24:05.535Z,7.78
2022-09-05T07:29:00.673Z,7.57
2022-09-05T07:34:22.859Z,6.60
2022-09-05T07:39:34.981Z,5.95
2022-09-05T07:44:40.578Z,5.47
2022-09-05T07:50:07.766Z,5.97
2022-09-05T07:56:55.764Z,5.07
2022-09-05T08:00:53.198Z,4.15
2022-09-05T08:06:00.493Z,4.05
2022-09-05T08:11:23.747Z,5.43
2022-09-05T08:16:28.456Z,3.20
2022-09-05T08:21:43.935Z,3.60
2022-09-05T08:26:51.289Z,3.33
2022-09-05T08:32:01.211Z,3.95
2022-09-05T08:37:03.744Z,3.25
2022-09-05T08:42:24.388Z,3.22
2022-09-05T08:47:51.261Z,3.03
2022-09-05T08:53:36.004Z,3.40
2022-09-05T08:59:28.134Z,3.03
2022-09-05T09:05:14.263Z,2.70
2022-09-05T09:10:55.023Z,3.03
2022-09-05T09:21:24.619Z,2.45
2022-09-05T09:26:42.506Z,2.85
2022-09-05T09:31:59.060Z,2.50
2022-09-05T09:37:49.957Z,2.60
2022-09-05T09:43:07.202Z,2.40
2022-09-05T09:48:30.650Z,2.20
2022-09-05T09:53:47.573Z,2.38
2022-09-05T09:59:29.510Z,2.15
2022-09-05T10:10:34.461Z,2.15
2022-09-05T10:10:49.031Z,2.20
2022-09-05T10:16:26.187Z,2.65
2022-09-05T10:21:28.825Z,2.45
2022-09-05T10:26:42.337Z,2.22
2022-09-05T10:34:59.405Z,2.30
2022-09-05T10:37:20.452Z,1.83
2022-09-05T10:42:31.450Z,1.90
2022-09-05T10:47:57.435Z,2.20
2022-09-05T10:53:26.513Z,2.07
2022-09-05T10:59:31.790Z,1.85
2022-09-05T11:04:20.511Z,1.70
2022-09-05T11:09:56.053Z,1.92
2022-09-05T11:15:23.962Z,1.85
2022-09-05T11:20:45.886Z,1.52
2022-09-05T11:25:58.731Z,2.15
2022-09-05T11:31:04.810Z,2.00
2022-09-05T11:40:05.246Z,2.10
2022-09-05T11:41:57.885Z,2.23
2022-09-05T11:47:27.916Z,1.80
2022-09-05T11:53:04.915Z,1.40
2022-09-05T11:58:45.120Z,2.08
2022-09-05T12:03:59.605Z,2.10
2022-09-05T12:09:26.918Z,1.98
2022-09-05T12:14:44.057Z,1.92
2022-09-05T12:20:26.701Z,1.80
2022-09-05T12:27:38.044Z,1.70
2022-09-05T12:32:30.518Z,2.05
2022-09-05T12:40:54.012Z,2.60
2022-09-05T12:42:49.813Z,1.70
2022-09-05T12:48:14.576Z,1.48
2022-09-05T12:53:19.615Z,1.90
2022-09-05T13:02:56.085Z,1.60
2022-09-05T13:04:16.761Z,1.92
2022-09-05T13:11:03.756Z,1.60
2022-09-05T13:15:28.658Z,2.08
2022-09-05T13:20:35.769Z,2.42
2022-09-05T13:25:44.536Z,2.15
2022-09-05T13:34:12.699Z,2.13
2022-09-05T13:37:58.207Z,2.33
2022-09-05T13:41:51.469Z,1.60
2022-09-05T13:47:29.021Z,1.70
2022-09-05T13:52:47.570Z,2.38
2022-09-05T13:58:07.407Z,2.03
2022-09-05T14:03:38.691Z,2.47
2022-09-05T14:20:28.283Z,2.53
2022-09-05T14:25:38.909Z,2.90
2022-09-05T14:32:51.725Z,5.72
2022-09-05T14:37:54.320Z,2.60
2022-09-05T14:42:14.426Z,2.42
2022-09-05T14:47:35.619Z,3.15
2022-09-05T14:52:43.402Z,2.50
2022-09-05T15:02:39.480Z,2.40
2022-09-05T15:03:12.775Z,2.42
2022-09-05T15:10:52.503Z,3.08
2022-09-05T15:14:07.595Z,2.65
2022-09-05T15:19:10.518Z,3.03
2022-09-05T15:24:29.543Z,2.70
2022-09-05T15:29:37.182Z,5.47
2022-09-05T15:34:39.877Z,3.05
2022-09-05T15:39:41.960Z,4.70
2022-09-05T15:45:06.205Z,3.20
2022-09-05T15:50:21.375Z,3.05
2022-09-05T15:55:26.907Z,2.67
2022-09-05T16:00:55.616Z,3.45
2022-09-05T16:10:29.369Z,3.33
2022-09-05T16:12:16.244Z,2.90
2022-09-05T16:23:14.121Z,3.78
2022-09-05T16:23:24.778Z,2.90
2022-09-05T16:28:17.089Z,3.10
2022-09-05T16:33:28.598Z,2.97
2022-09-05T16:38:49.860Z,3.08
2022-09-05T16:44:01.016Z,3.22
2022-09-05T16:49:41.609Z,3.45
2022-09-05T16:54:54.941Z,3.15
2022-09-05T16:59:58.362Z,3.90
2022-09-05T17:05:21.891Z,3.30
2022-09-05T17:10:28.799Z,3.80
2022-09-05T17:15:39.859Z,4.32
2022-09-05T17:20:59.273Z,3.92
2022-09-05T17:29:25.252Z,4.72
2022-09-05T17:31:56.353Z,4.18
2022-09-05T17:37:36.416Z,4.53
2022-09-05T17:43:42.883Z,4.50
2022-09-05T17:49:05.337Z,4.65
2022-09-05T17:54:15.282Z,4.70
2022-09-05T17:59:20.458Z,5.97
2022-09-05T18:04:46.151Z,4.97
2022-09-05T18:10:14.872Z,4.70
2022-09-05T18:15:30.216Z,5.32
2022-09-05T18:20:49.848Z,4.32
2022-09-05T18:26:11.599Z,6.03
2022-09-05T18:31:41.372Z,4.57
2022-09-05T18:36:46.068Z,4.85
2022-09-05T18:41:56.450Z,4.70
2022-09-05T18:47:33.230Z,4.45
2022-09-05T18:52:46.790Z,4.80
2022-09-05T18:57:59.055Z,5.15
2022-09-05T19:03:25.130Z,5.18
2022-09-05T19:08:34.566Z,4.97
2022-09-05T19:13:40.375Z,4.18
2022-09-05T19:19:16.278Z,4.05
2022-09-05T19:24:20.682Z,4.40
2022-09-05T19:36:44.909Z,4.10
2022-09-05T19:37:04.776Z,4.35
2022-09-05T19:46:50.729Z,4.28
2022-09-05T19:47:35.382Z,6.63
2022-09-05T19:51:29.156Z,7.93
2022-09-05T19:56:42.923Z,6.78
2022-09-05T20:01:46.721Z,6.95
2022-09-05T20:06:50.258Z,7.57
2022-09-05T20:11:58.318Z,7.20
2022-09-05T20:17:28.532Z,7.20
2022-09-05T20:22:48.709Z,6.40
2022-09-05T20:27:52.444Z,5.78
2022-09-05T20:33:02.552Z,6.57
2022-09-05T20:43:21.923Z,5.53
2022-09-05T20:43:55.868Z,5.18
2022-09-05T20:54:05.615Z,5.22
2022-09-05T20:54:41.392Z,5.03
2022-09-05T20:59:47.215Z,5.40
2022-09-05T21:05:06.722Z,5.20
2022-09-05T21:10:26.876Z,5.82
2022-09-05T21:15:52.530Z,5.50
2022-09-05T21:21:01.505Z,4.60
2022-09-05T21:26:06.388Z,5.38
2022-09-05T21:31:10.573Z,4.43
2022-09-05T21:36:17.927Z,4.40
2022-09-05T21:41:19.566Z,4.97
2022-09-05T21:47:41.944Z,4.65
2022-09-05T21:51:48.044Z,3.65
2022-09-05T21:59:29.947Z,3.28
2022-09-05T22:02:29.851Z,3.20
2022-09-05T22:07:35.882Z,3.05
2022-09-05T22:12:38.865Z,2.92
2022-09-05T22:17:44.603Z,2.40
2022-09-05T22:22:55.609Z,2.38
2022-09-05T22:28:06.420Z,2.65
2022-09-05T22:33:08.334Z,3.85
2022-09-05T22:38:16.416Z,3.35
2022-09-05T22:43:19.536Z,3.83
2022-09-05T22:48:23.574Z,3.72
2022-09-05T22:53:25.624Z,3.08
2022-09-05T22:58:27.752Z,3.53
2022-09-05T23:03:30.776Z,3.35
2022-09-05T23:08:32.687Z,2.83
2022-09-05T23:13:34.436Z,2.20
2022-09-05T23:18:36.661Z,1.73
2022-09-05T23:23:39.868Z,1.15
2022-09-05T23:28:43.630Z,1.00
2022-09-05T23:33:45.434Z,0.98
2022-09-05T23:38:47.248Z,0.93
2022-09-05T23:43:48.971Z,0.95
2022-09-05T23:48:50.816Z,0.80
2022-09-05T23:53:52.701Z,0.95
2022-09-05T23:58:54.319Z,1.00
